Time;durP1;ratioP1;P1;durP2;ratioP2;P2;SDS_P1;SDS_P2;PMS_P1;PMS_P2;Temp;Humidity;BMP_temperature;BMP_pressure;BME280_temperature;BME280_humidity;BME280_pressure;Samples;Min_cycle;Max_cycle;Signal;HPM_P1;HPM_P2
2022/06/17 00:01:59;;;;;;;;;;;26.70;44.40;;;;;;5075743;28;19912;-60
2022/06/17 00:04:24;;;;;;;;;;;26.70;44.40;;;;;;5075584;28;20004;-61
2022/06/17 00:07:10;;;;;;;;;;;26.70;44.40;;;;;;5091170;28;19915;-61
2022/06/17 00:09:35;;;;;;;;;;;26.70;44.60;;;;;;5074791;28;19916;-60
2022/06/17 00:12:01;;;;;;;;;;;26.70;44.50;;;;;;5091110;28;20372;-60
2022/06/17 00:14:31;;;;;;;;;;;26.70;44.50;;;;;;5075508;28;19944;-61
2022/06/17 00:16:57;;;;;;;;;;;26.70;44.50;;;;;;5075317;28;19995;-61
2022/06/17 00:19:22;;;;;;;;;;;26.70;44.30;;;;;;5057537;28;19908;-60
2022/06/17 00:21:48;;;;;;;;;;;26.70;44.40;;;;;;5075222;28;19908;-61
2022/06/17 00:24:19;;;;;;;;;;;26.70;44.40;;;;;;5075344;28;20003;-61
2022/06/17 00:26:44;;;;;;;;;;;26.70;44.30;;;;;;5090843;28;20258;-60
2022/06/17 00:29:13;;;;;;;;;;;26.60;44.30;;;;;;5057217;28;19919;-61
2022/06/17 00:31:39;;;;;;;;;;;26.60;44.30;;;;;;5075126;28;20419;-60
2022/06/17 00:34:04;;;;;;;;;;;26.60;44.40;;;;;;5057089;28;19946;-60
2022/06/17 00:36:30;;;;;;;;;;;26.60;44.30;;;;;;5057183;28;19938;-61
2022/06/17 00:38:55;;;;;;;;;;;26.60;44.30;;;;;;5074933;28;19919;-60
2022/06/17 00:41:22;;;;;;;;;;;26.60;44.40;;;;;;5090491;28;20432;-60
2022/06/17 00:43:48;;;;;;;;;;;26.60;44.30;;;;;;5074868;28;19909;-61
2022/06/17 00:46:17;;;;;;;;;;;26.60;44.30;;;;;;5074681;28;19915;-61
2022/06/17 00:48:44;;;;;;;;;;;26.60;44.30;;;;;;5074684;28;19943;-61
2022/06/17 00:51:20;;;;;;;;;;;26.60;44.30;;;;;;5074690;28;19995;-60
2022/06/17 00:53:50;;;;;;;;;;;26.60;44.30;;;;;;5056806;28;19913;-61
2022/06/17 00:56:24;;;;;;;;;;;26.60;44.30;;;;;;5074691;28;19913;-61
2022/06/17 00:58:52;;;;;;;;;;;26.60;44.40;;;;;;5056738;28;19919;-61
2022/06/17 01:01:18;;;;;;;;;;;26.60;44.40;;;;;;5074462;28;19916;-61
2022/06/17 01:03:44;;;;;;;;;;;26.60;44.30;;;;;;5074465;28;19916;-61
2022/06/17 01:06:11;;;;;;;;;;;26.60;44.40;;;;;;5074430;28;20053;-60
2022/06/17 01:11:31;;;;;;;;;;;26.50;44.40;;;;;;5074376;28;19974;-60
2022/06/17 01:13:56;;;;;;;;;;;26.50;44.50;;;;;;5074278;28;19908;-61
2022/06/17 01:16:22;;;;;;;;;;;26.50;44.50;;;;;;5056407;28;20015;-61
2022/06/17 01:18:48;;;;;;;;;;;26.50;44.40;;;;;;5074218;28;19909;-60
2022/06/17 01:21:25;;;;;;;;;;;26.50;44.40;;;;;;5074028;28;19909;-60
2022/06/17 01:23:50;;;;;;;;;;;26.50;44.40;;;;;;5072782;28;19947;-62
2022/06/17 01:26:16;;;;;;;;;;;26.50;44.40;;;;;;5056100;28;19993;-61
2022/06/17 01:28:42;;;;;;;;;;;26.50;44.50;;;;;;5074140;28;19908;-60
2022/06/17 01:31:07;;;;;;;;;;;26.50;44.40;;;;;;5073869;28;19915;-60
2022/06/17 01:33:34;;;;;;;;;;;26.50;44.30;;;;;;5074015;28;19915;-61
2022/06/17 01:36:10;;;;;;;;;;;26.50;44.50;;;;;;5073860;28;19962;-60
2022/06/17 01:38:36;;;;;;;;;;;26.50;44.40;;;;;;5073715;28;19917;-60
2022/06/17 01:41:02;;;;;;;;;;;26.50;44.50;;;;;;5073745;28;19952;-60
2022/06/17 01:43:47;;;;;;;;;;;26.50;44.50;;;;;;5055500;28;20305;-61
2022/06/17 01:46:20;;;;;;;;;;;26.40;44.50;;;;;;5055788;28;19908;-60
2022/06/17 01:48:53;;;;;;;;;;;26.40;44.50;;;;;;5055673;28;19922;-60
2022/06/17 01:51:18;;;;;;;;;;;26.40;44.50;;;;;;5055691;28;20391;-60
2022/06/17 01:53:45;;;;;;;;;;;26.40;44.50;;;;;;5073544;28;19955;-60
2022/06/17 01:56:12;;;;;;;;;;;26.40;44.40;;;;;;5073407;28;19948;-61
2022/06/17 01:58:39;;;;;;;;;;;26.40;44.40;;;;;;5055556;28;20364;-61
2022/06/17 02:01:05;;;;;;;;;;;26.40;44.30;;;;;;5073474;28;19908;-60
2022/06/17 02:03:35;;;;;;;;;;;26.40;44.40;;;;;;5056000;28;19914;-60
2022/06/17 02:06:10;;;;;;;;;;;26.40;44.50;;;;;;5055517;28;20003;-60
2022/06/17 02:08:36;;;;;;;;;;;26.40;44.50;;;;;;5055638;28;19958;-61
2022/06/17 02:11:01;;;;;;;;;;;26.30;44.40;;;;;;5055339;28;19908;-60
2022/06/17 02:13:27;;;;;;;;;;;26.30;44.60;;;;;;5055401;28;19912;-61
2022/06/17 02:15:52;;;;;;;;;;;26.30;44.40;;;;;;5073194;28;19908;-61
2022/06/17 02:18:18;;;;;;;;;;;26.30;44.50;;;;;;5073117;28;19913;-61
2022/06/17 02:20:43;;;;;;;;;;;26.30;44.50;;;;;;5055259;28;19974;-60
2022/06/17 02:23:09;;;;;;;;;;;26.30;44.50;;;;;;5088695;28;19913;-60
2022/06/17 02:25:35;;;;;;;;;;;26.30;44.50;;;;;;5073205;28;20391;-60
2022/06/17 02:28:01;;;;;;;;;;;26.30;44.50;;;;;;5055172;28;19909;-61
2022/06/17 02:30:26;;;;;;;;;;;26.30;44.50;;;;;;5072954;28;19908;-61
2022/06/17 02:32:52;;;;;;;;;;;26.30;44.40;;;;;;5073115;28;19954;-61
2022/06/17 02:35:23;;;;;;;;;;;26.30;44.50;;;;;;5055080;28;19908;-60
2022/06/17 02:37:50;;;;;;;;;;;26.20;45.10;;;;;;5072894;28;20359;-60
2022/06/17 02:40:25;;;;;;;;;;;26.30;44.50;;;;;;5054995;28;19912;-60
2022/06/17 02:42:51;;;;;;;;;;;26.20;44.50;;;;;;5072916;28;20008;-61
2022/06/17 02:45:18;;;;;;;;;;;26.20;44.50;;;;;;5072880;28;20383;-61
2022/06/17 02:47:44;;;;;;;;;;;26.20;44.40;;;;;;5054924;28;20373;-60
2022/06/17 02:50:19;;;;;;;;;;;26.20;44.40;;;;;;5072865;28;19959;-60
2022/06/17 02:52:45;;;;;;;;;;;26.20;44.50;;;;;;5072863;28;20306;-60
2022/06/17 02:55:30;;;;;;;;;;;26.20;44.50;;;;;;5056604;28;19909;-60
2022/06/17 02:57:57;;;;;;;;;;;26.20;44.50;;;;;;5076850;28;19917;-60
2022/06/17 03:00:22;;;;;;;;;;;26.20;44.50;;;;;;5058929;28;19962;-61
2022/06/17 03:02:54;;;;;;;;;;;26.20;44.50;;;;;;5076764;28;19908;-61
2022/06/17 03:05:24;;;;;;;;;;;26.20;44.40;;;;;;5058773;28;19909;-60
2022/06/17 03:07:50;;;;;;;;;;;26.20;44.50;;;;;;5058904;28;19916;-61
2022/06/17 03:10:16;;;;;;;;;;;26.10;44.50;;;;;;5058763;28;19924;-61
2022/06/17 03:12:42;;;;;;;;;;;26.10;44.40;;;;;;5076748;28;19957;-60
2022/06/17 03:15:08;;;;;;;;;;;26.10;44.60;;;;;;5058900;28;19987;-60
2022/06/17 03:17:38;;;;;;;;;;;26.10;44.60;;;;;;5058548;28;19912;-60
2022/06/17 03:20:04;;;;;;;;;;;26.10;44.60;;;;;;5076605;28;20466;-61
2022/06/17 03:22:30;;;;;;;;;;;26.10;44.60;;;;;;5076301;28;19963;-60
2022/06/17 03:24:55;;;;;;;;;;;26.10;44.50;;;;;;5058670;28;20309;-60
2022/06/17 03:27:32;;;;;;;;;;;26.10;44.60;;;;;;5076395;28;20374;-60
2022/06/17 03:29:58;;;;;;;;;;;26.10;44.70;;;;;;5074923;28;19908;-61
2022/06/17 03:32:25;;;;;;;;;;;26.10;44.60;;;;;;5058393;28;19908;-60
2022/06/17 03:34:51;;;;;;;;;;;26.10;44.70;;;;;;5058299;28;20288;-60
2022/06/17 03:37:40;;;;;;;;;;;26.00;44.70;;;;;;5058179;28;19923;-60
2022/06/17 03:40:06;;;;;;;;;;;26.00;44.50;;;;;;5066385;28;20269;-60
2022/06/17 03:42:33;;;;;;;;;;;26.00;44.70;;;;;;5058478;28;19908;-61
2022/06/17 03:44:58;;;;;;;;;;;26.00;44.70;;;;;;5075911;28;19909;-61
2022/06/17 03:47:44;;;;;;;;;;;26.00;44.50;;;;;;5075624;28;20332;-60
2022/06/17 03:50:17;;;;;;;;;;;26.00;44.50;;;;;;5074091;28;19908;-61
2022/06/17 03:52:43;;;;;;;;;;;26.00;44.70;;;;;;5056907;28;19908;-61
2022/06/17 03:55:12;;;;;;;;;;;26.00;44.60;;;;;;5074823;28;20399;-61
2022/06/17 03:57:37;;;;;;;;;;;26.00;44.60;;;;;;5074628;28;19917;-60
2022/06/17 04:00:03;;;;;;;;;;;26.00;44.70;;;;;;5074610;28;19916;-60
2022/06/17 04:02:29;;;;;;;;;;;26.00;44.60;;;;;;5074520;28;20414;-61
2022/06/17 04:04:55;;;;;;;;;;;26.00;44.60;;;;;;5074328;28;19916;-61
2022/06/17 04:07:20;;;;;;;;;;;26.00;44.70;;;;;;5074160;28;20369;-60
2022/06/17 04:09:46;;;;;;;;;;;26.00;44.60;;;;;;5056419;28;20380;-60
2022/06/17 04:12:11;;;;;;;;;;;26.00;44.60;;;;;;5074400;28;20081;-60
2022/06/17 04:14:55;;;;;;;;;;;26.00;44.50;;;;;;5074487;28;19908;-60
2022/06/17 04:17:51;;;;;;;;;;;26.00;44.50;;;;;;5074278;28;20300;-61
2022/06/17 04:20:23;;;;;;;;;;;26.00;44.50;;;;;;5061431;28;19995;-60
2022/06/17 04:22:49;;;;;;;;;;;26.00;44.60;;;;;;5074225;28;19908;-61
2022/06/17 04:25:19;;;;;;;;;;;26.00;44.70;;;;;;5074190;28;19909;-60
2022/06/17 04:27:56;;;;;;;;;;;26.00;44.70;;;;;;5056248;28;19908;-61
2022/06/17 04:30:23;;;;;;;;;;;26.00;44.80;;;;;;5074039;28;19961;-61
2022/06/17 04:32:48;;;;;;;;;;;25.90;44.80;;;;;;5074056;28;19958;-61
2022/06/17 04:35:14;;;;;;;;;;;25.90;45.00;;;;;;5056013;28;19960;-60
2022/06/17 04:37:40;;;;;;;;;;;25.90;45.00;;;;;;5073793;28;19912;-60
2022/06/17 04:40:07;;;;;;;;;;;25.90;44.90;;;;;;5056063;28;20392;-61
2022/06/17 04:42:38;;;;;;;;;;;25.90;44.90;;;;;;5056091;28;19915;-60
2022/06/17 04:45:04;;;;;;;;;;;25.90;44.90;;;;;;5062940;28;19909;-61
2022/06/17 04:47:29;;;;;;;;;;;25.90;44.90;;;;;;5012309;28;1742670;-60
2022/06/17 04:49:55;;;;;;;;;;;25.90;45.00;;;;;;5073445;28;19946;-60
2022/06/17 04:52:36;;;;;;;;;;;25.80;44.90;;;;;;5056833;28;19908;-60
2022/06/17 04:55:03;;;;;;;;;;;25.80;45.00;;;;;;5074683;28;20399;-60
2022/06/17 04:57:28;;;;;;;;;;;25.80;45.20;;;;;;5073302;28;19913;-60
2022/06/17 04:59:58;;;;;;;;;;;25.80;45.00;;;;;;5074574;28;19908;-60
2022/06/17 05:02:24;;;;;;;;;;;25.80;45.10;;;;;;5057578;28;19920;-61
2022/06/17 05:04:51;;;;;;;;;;;25.80;45.10;;;;;;5074483;28;19953;-60
2022/06/17 05:07:16;;;;;;;;;;;25.80;45.30;;;;;;5074614;28;19962;-61
2022/06/17 05:09:49;;;;;;;;;;;25.80;45.10;;;;;;5074456;28;20323;-60
2022/06/17 05:12:16;;;;;;;;;;;25.80;45.10;;;;;;5074178;28;20029;-61
2022/06/17 05:14:46;;;;;;;;;;;25.80;45.00;;;;;;5074271;28;20291;-60
2022/06/17 05:17:11;;;;;;;;;;;25.80;45.10;;;;;;5073348;28;20003;-60
2022/06/17 05:19:37;;;;;;;;;;;25.80;44.90;;;;;;5056369;28;20406;-60
2022/06/17 05:22:02;;;;;;;;;;;25.80;45.90;;;;;;5074178;28;19912;-60
2022/06/17 05:24:28;;;;;;;;;;;25.80;45.30;;;;;;5056226;28;20004;-60
2022/06/17 05:26:53;;;;;;;;;;;25.80;45.30;;;;;;5056180;28;19913;-60
2022/06/17 05:29:19;;;;;;;;;;;25.70;45.10;;;;;;5073930;28;19909;-61
2022/06/17 05:31:49;;;;;;;;;;;25.70;45.20;;;;;;5073990;28;19908;-61
2022/06/17 05:34:15;;;;;;;;;;;25.70;45.30;;;;;;5063463;28;19909;-61
2022/06/17 05:36:40;;;;;;;;;;;25.70;45.20;;;;;;5073801;28;19912;-61
2022/06/17 05:39:06;;;;;;;;;;;25.70;45.30;;;;;;5073641;28;19913;-61
2022/06/17 05:41:31;;;;;;;;;;;25.70;45.40;;;;;;5073720;28;19908;-60
2022/06/17 05:43:57;;;;;;;;;;;25.70;45.40;;;;;;5055746;28;19914;-60
2022/06/17 05:46:22;;;;;;;;;;;25.70;45.30;;;;;;5056051;28;20008;-60
2022/06/17 05:48:47;;;;;;;;;;;25.70;45.10;;;;;;5073470;28;19921;-61
2022/06/17 05:51:13;;;;;;;;;;;25.70;46.00;;;;;;5055603;28;19909;-60
2022/06/17 05:53:38;;;;;;;;;;;25.70;45.10;;;;;;5073550;28;20643;-61
2022/06/17 05:56:04;;;;;;;;;;;25.80;45.20;;;;;;5073492;28;20352;-60
2022/06/17 05:58:29;;;;;;;;;;;25.70;45.80;;;;;;5073308;28;19916;-60
2022/06/17 06:00:55;;;;;;;;;;;25.70;45.10;;;;;;5088959;28;19934;-60
2022/06/17 06:03:22;;;;;;;;;;;25.70;45.30;;;;;;5073364;28;19919;-61
2022/06/17 06:05:47;;;;;;;;;;;25.70;45.20;;;;;;5073389;28;19999;-61
2022/06/17 06:08:13;;;;;;;;;;;25.70;45.30;;;;;;5073147;28;19952;-60
2022/06/17 06:10:38;;;;;;;;;;;25.60;45.30;;;;;;5073309;28;19975;-60
2022/06/17 06:13:04;;;;;;;;;;;25.70;45.30;;;;;;5073322;28;20443;-60
2022/06/17 06:15:38;;;;;;;;;;;25.70;45.40;;;;;;5073187;28;19909;-61
2022/06/17 06:18:04;;;;;;;;;;;25.70;45.30;;;;;;5073098;28;20019;-61
2022/06/17 06:20:29;;;;;;;;;;;25.60;45.20;;;;;;5055240;28;19952;-61
2022/06/17 06:22:55;;;;;;;;;;;25.60;45.40;;;;;;5073082;28;19956;-61
2022/06/17 06:25:20;;;;;;;;;;;25.60;45.20;;;;;;5073045;28;19908;-60
2022/06/17 06:27:46;;;;;;;;;;;25.70;45.00;;;;;;5073073;28;19912;-60
2022/06/17 06:30:20;;;;;;;;;;;25.70;45.10;;;;;;5072920;28;19913;-61
2022/06/17 06:32:46;;;;;;;;;;;25.70;45.30;;;;;;5072971;28;19909;-61
2022/06/17 06:35:13;;;;;;;;;;;25.60;45.20;;;;;;5072917;28;19916;-60
2022/06/17 06:37:38;;;;;;;;;;;25.60;45.30;;;;;;5073059;28;20011;-61
2022/06/17 06:40:04;;;;;;;;;;;25.60;45.20;;;;;;5073137;28;19999;-61
2022/06/17 06:42:30;;;;;;;;;;;25.60;45.30;;;;;;5072852;28;19962;-60
2022/06/17 06:44:56;;;;;;;;;;;25.60;45.40;;;;;;5072916;28;19908;-60
2022/06/17 06:47:21;;;;;;;;;;;25.50;45.50;;;;;;5072740;28;19970;-60
2022/06/17 06:49:47;;;;;;;;;;;25.50;45.50;;;;;;5072864;28;19947;-60
2022/06/17 06:52:12;;;;;;;;;;;25.50;45.50;;;;;;5054975;28;19915;-61
2022/06/17 06:54:38;;;;;;;;;;;25.50;45.50;;;;;;5072933;28;19915;-60
2022/06/17 06:57:03;;;;;;;;;;;25.60;45.40;;;;;;5088272;28;20003;-61
2022/06/17 06:59:29;;;;;;;;;;;25.50;45.40;;;;;;5073047;28;19908;-61
2022/06/17 07:01:54;;;;;;;;;;;25.50;45.70;;;;;;5072672;28;19916;-60
2022/06/17 07:04:20;;;;;;;;;;;25.40;45.70;;;;;;5072633;28;19909;-61
2022/06/17 07:06:47;;;;;;;;;;;25.50;45.50;;;;;;5072824;28;19912;-60
2022/06/17 07:09:12;;;;;;;;;;;25.50;45.30;;;;;;5072532;28;20379;-60
2022/06/17 07:11:38;;;;;;;;;;;25.60;45.40;;;;;;5054825;28;19909;-60
2022/06/17 07:14:04;;;;;;;;;;;25.60;45.40;;;;;;5054627;28;19909;-60
2022/06/17 07:16:29;;;;;;;;;;;25.60;45.20;;;;;;5054411;28;20391;-60
2022/06/17 07:18:54;;;;;;;;;;;25.60;45.20;;;;;;5072480;28;20386;-61
2022/06/17 07:21:20;;;;;;;;;;;25.60;45.50;;;;;;5072646;28;19916;-61
2022/06/17 07:23:45;;;;;;;;;;;25.60;45.50;;;;;;5072697;28;19924;-61
2022/06/17 07:26:16;;;;;;;;;;;25.60;45.40;;;;;;5072493;28;20261;-60
2022/06/17 07:28:41;;;;;;;;;;;25.60;45.20;;;;;;5054809;28;20330;-60
2022/06/17 07:31:07;;;;;;;;;;;25.60;45.00;;;;;;5054514;28;19909;-60
2022/06/17 07:33:34;;;;;;;;;;;25.70;45.10;;;;;;5072363;28;19932;-60
2022/06/17 07:36:01;;;;;;;;;;;25.70;44.90;;;;;;5072348;28;20338;-60
2022/06/17 07:41:22;;;;;;;;;;;25.80;44.80;;;;;;5074227;28;20051;-60
2022/06/17 07:43:48;;;;;;;;;;;25.80;45.00;;;;;;5075979;28;19995;-60
2022/06/17 07:46:13;;;;;;;;;;;25.80;44.60;;;;;;5058071;28;19944;-60
2022/06/17 07:48:39;;;;;;;;;;;25.80;44.50;;;;;;5075820;28;19928;-61
2022/06/17 07:51:05;;;;;;;;;;;25.90;44.40;;;;;;5058181;28;19909;-60
2022/06/17 07:53:31;;;;;;;;;;;25.90;44.50;;;;;;5075855;28;19908;-60
2022/06/17 07:56:00;;;;;;;;;;;25.90;44.50;;;;;;5075783;28;19913;-60
2022/06/17 07:58:25;;;;;;;;;;;25.90;44.30;;;;;;5075936;28;20456;-60
2022/06/17 08:00:51;;;;;;;;;;;25.90;44.50;;;;;;5075633;28;19908;-60
2022/06/17 08:03:17;;;;;;;;;;;25.90;44.70;;;;;;5075541;28;19919;-61
2022/06/17 08:05:43;;;;;;;;;;;25.90;44.60;;;;;;5075605;28;19909;-60
2022/06/17 08:08:08;;;;;;;;;;;25.90;44.50;;;;;;5075501;28;20007;-60
2022/06/17 08:10:35;;;;;;;;;;;25.90;44.60;;;;;;5075772;28;20391;-60
2022/06/17 08:13:01;;;;;;;;;;;25.90;44.50;;;;;;5057932;28;19908;-60
2022/06/17 08:15:26;;;;;;;;;;;25.90;44.60;;;;;;5075398;28;19912;-60
2022/06/17 08:17:52;;;;;;;;;;;25.90;44.40;;;;;;5091018;28;20000;-60
2022/06/17 08:20:19;;;;;;;;;;;25.90;44.80;;;;;;5075432;28;19955;-60
2022/06/17 08:22:44;;;;;;;;;;;25.90;45.00;;;;;;5075373;28;19908;-60
2022/06/17 08:25:10;;;;;;;;;;;25.90;44.90;;;;;;5090838;28;19916;-60
2022/06/17 08:27:46;;;;;;;;;;;25.90;45.10;;;;;;5075172;28;19916;-60
2022/06/17 08:30:12;;;;;;;;;;;25.90;45.10;;;;;;5075406;28;20046;-60
2022/06/17 08:32:47;;;;;;;;;;;25.90;45.10;;;;;;5057214;28;19965;-60
2022/06/17 08:35:13;;;;;;;;;;;25.80;45.10;;;;;;5075035;28;19919;-60
2022/06/17 08:37:38;;;;;;;;;;;25.80;45.20;;;;;;5057028;28;19919;-61
2022/06/17 08:40:06;;;;;;;;;;;25.90;45.10;;;;;;5074960;28;19908;-61
2022/06/17 08:42:42;;;;;;;;;;;25.90;45.20;;;;;;5057109;28;20391;-61
2022/06/17 08:45:23;;;;;;;;;;;25.90;45.00;;;;;;5057026;28;19915;-61
2022/06/17 08:47:55;;;;;;;;;;;25.90;45.20;;;;;;5074756;28;19920;-60
2022/06/17 08:50:31;;;;;;;;;;;25.90;45.10;;;;;;5057001;28;19908;-61
2022/06/17 08:53:03;;;;;;;;;;;25.90;45.20;;;;;;5056090;28;19960;-61
2022/06/17 08:55:40;;;;;;;;;;;25.90;45.00;;;;;;5056902;28;19916;-61
2022/06/17 08:58:17;;;;;;;;;;;25.90;44.90;;;;;;5073223;28;20053;-61
2022/06/17 09:00:59;;;;;;;;;;;25.90;45.00;;;;;;5056555;28;19909;-60
2022/06/17 09:03:43;;;;;;;;;;;25.90;45.10;;;;;;5074408;28;20380;-61
2022/06/17 09:06:27;;;;;;;;;;;25.90;45.20;;;;;;5074543;28;19909;-61
2022/06/17 09:08:59;;;;;;;;;;;25.90;45.10;;;;;;5074368;28;19909;-61
2022/06/17 09:11:29;;;;;;;;;;;25.90;45.10;;;;;;5074356;28;19909;-61
2022/06/17 09:14:14;;;;;;;;;;;25.90;45.00;;;;;;5056414;28;19958;-60
2022/06/17 09:16:51;;;;;;;;;;;26.00;45.10;;;;;;5074345;28;20398;-61
2022/06/17 09:19:18;;;;;;;;;;;26.00;45.10;;;;;;5074126;28;19919;-61
2022/06/17 09:21:51;;;;;;;;;;;26.00;45.20;;;;;;5056512;28;19908;-61
2022/06/17 09:24:23;;;;;;;;;;;25.90;45.20;;;;;;5074093;28;19913;-60
2022/06/17 09:26:54;;;;;;;;;;;26.00;45.30;;;;;;5074191;28;20564;-60
2022/06/17 09:29:25;;;;;;;;;;;26.00;45.30;;;;;;5056080;28;19908;-61
2022/06/17 09:31:52;;;;;;;;;;;26.00;45.30;;;;;;5073967;28;19944;-60
2022/06/17 09:34:20;;;;;;;;;;;25.90;45.30;;;;;;5073846;28;20276;-61
2022/06/17 09:36:56;;;;;;;;;;;26.00;45.40;;;;;;5056018;28;20329;-60
2022/06/17 09:39:40;;;;;;;;;;;26.00;45.40;;;;;;5073815;28;20284;-60
2022/06/17 09:42:08;;;;;;;;;;;25.90;45.40;;;;;;5056988;28;19951;-60
2022/06/17 09:44:42;;;;;;;;;;;25.90;45.40;;;;;;5055896;28;19908;-61
2022/06/17 09:47:17;;;;;;;;;;;26.00;45.40;;;;;;5055898;28;19908;-60
2022/06/17 09:50:04;;;;;;;;;;;26.00;45.40;;;;;;5073704;28;19916;-61
2022/06/17 09:52:31;;;;;;;;;;;26.00;45.30;;;;;;5073603;28;20389;-61
2022/06/17 09:55:03;;;;;;;;;;;26.00;45.30;;;;;;5055648;28;19952;-61
2022/06/17 09:57:32;;;;;;;;;;;26.00;45.30;;;;;;5073362;28;20054;-61
2022/06/17 10:00:01;;;;;;;;;;;26.10;45.30;;;;;;5073294;28;19916;-61
2022/06/17 10:02:31;;;;;;;;;;;26.10;45.20;;;;;;5073296;28;19920;-60
2022/06/17 10:04:57;;;;;;;;;;;26.20;45.10;;;;;;5055015;28;20023;-61
2022/06/17 10:07:23;;;;;;;;;;;26.10;45.00;;;;;;5074158;28;19948;-60
2022/06/17 10:09:54;;;;;;;;;;;26.20;45.10;;;;;;5073476;28;19908;-60
2022/06/17 10:12:34;;;;;;;;;;;26.20;44.90;;;;;;5073376;28;19951;-61
2022/06/17 10:15:18;;;;;;;;;;;26.20;44.90;;;;;;5055240;28;19940;-61
2022/06/17 10:20:37;;;;;;;;;;;26.30;44.80;;;;;;5058041;28;19954;-60
2022/06/17 10:23:02;;;;;;;;;;;26.30;44.80;;;;;;5073364;28;19909;-60
2022/06/17 10:25:47;;;;;;;;;;;26.40;44.80;;;;;;5073050;28;20287;-61
2022/06/17 10:28:13;;;;;;;;;;;26.40;44.80;;;;;;5073012;28;19913;-61
2022/06/17 10:30:46;;;;;;;;;;;26.40;44.80;;;;;;5072976;28;19909;-60
2022/06/17 10:33:13;;;;;;;;;;;26.40;44.80;;;;;;5055035;28;19908;-61
2022/06/17 10:35:38;;;;;;;;;;;26.30;44.80;;;;;;5055436;28;20495;-61
2022/06/17 10:38:05;;;;;;;;;;;26.30;44.80;;;;;;5054949;28;19913;-60
2022/06/17 10:40:31;;;;;;;;;;;26.30;44.80;;;;;;5072909;28;19912;-61
2022/06/17 10:42:59;;;;;;;;;;;26.40;44.80;;;;;;5072874;28;19917;-60
2022/06/17 10:45:24;;;;;;;;;;;26.40;44.80;;;;;;5072916;28;20066;-61
2022/06/17 10:48:01;;;;;;;;;;;26.40;44.70;;;;;;5072842;28;19924;-61
2022/06/17 10:50:28;;;;;;;;;;;26.40;44.70;;;;;;5054892;28;20382;-61
2022/06/17 10:53:12;;;;;;;;;;;26.40;44.80;;;;;;5072786;28;20276;-61
2022/06/17 10:55:42;;;;;;;;;;;26.40;44.80;;;;;;5072849;28;19909;-60
2022/06/17 10:58:21;;;;;;;;;;;26.40;44.80;;;;;;5054774;28;20376;-60
2022/06/17 11:00:52;;;;;;;;;;;26.40;44.90;;;;;;5072717;28;19958;-60
2022/06/17 11:03:21;;;;;;;;;;;26.40;44.80;;;;;;5072555;28;19999;-61
2022/06/17 11:05:51;;;;;;;;;;;26.40;44.60;;;;;;5054761;28;19908;-60
2022/06/17 11:08:20;;;;;;;;;;;26.40;44.50;;;;;;5055042;28;19912;-61
2022/06/17 11:10:50;;;;;;;;;;;26.50;44.60;;;;;;5055164;28;19909;-61
2022/06/17 11:13:16;;;;;;;;;;;26.50;44.50;;;;;;5072615;28;20258;-61
2022/06/17 11:15:45;;;;;;;;;;;26.60;45.00;;;;;;5073389;28;19914;-60
2022/06/17 11:18:14;;;;;;;;;;;26.50;44.70;;;;;;5058360;28;19919;-61
2022/06/17 11:20:42;;;;;;;;;;;26.50;44.60;;;;;;5058889;28;19922;-61
2022/06/17 11:23:24;;;;;;;;;;;26.50;44.60;;;;;;5076679;28;19920;-60
2022/06/17 11:25:50;;;;;;;;;;;26.50;44.40;;;;;;5074991;28;19909;-60
2022/06/17 11:28:23;;;;;;;;;;;26.60;44.50;;;;;;5058249;28;19959;-61
2022/06/17 11:30:49;;;;;;;;;;;26.60;44.30;;;;;;5076467;28;19951;-61
2022/06/17 11:33:23;;;;;;;;;;;26.60;44.10;;;;;;5058327;28;20384;-61
2022/06/17 11:35:48;;;;;;;;;;;26.60;44.40;;;;;;5076322;28;19968;-61
2022/06/17 11:38:14;;;;;;;;;;;26.60;44.40;;;;;;5057654;28;20012;-61
2022/06/17 11:40:47;;;;;;;;;;;26.60;44.50;;;;;;5058027;28;20410;-61
2022/06/17 11:43:22;;;;;;;;;;;26.60;44.40;;;;;;5075910;28;19908;-61
2022/06/17 11:45:47;;;;;;;;;;;26.60;44.20;;;;;;5041403;28;19943;-61
2022/06/17 11:48:13;;;;;;;;;;;26.70;44.30;;;;;;5091433;28;19932;-61
2022/06/17 11:50:40;;;;;;;;;;;26.60;44.40;;;;;;5075842;28;20002;-61
2022/06/17 11:53:11;;;;;;;;;;;26.60;44.50;;;;;;5058026;28;19957;-60
2022/06/17 11:55:47;;;;;;;;;;;26.60;44.50;;;;;;5058150;28;20002;-60
2022/06/17 11:58:12;;;;;;;;;;;26.60;44.60;;;;;;5075696;28;19920;-61
2022/06/17 12:00:48;;;;;;;;;;;26.60;44.50;;;;;;5075666;28;19909;-60
2022/06/17 12:03:15;;;;;;;;;;;26.60;44.60;;;;;;5058170;28;19912;-61
2022/06/17 12:05:41;;;;;;;;;;;26.60;44.70;;;;;;5057746;28;19913;-61
2022/06/17 12:08:20;;;;;;;;;;;26.60;44.60;;;;;;5057569;28;19977;-61
2022/06/17 12:10:52;;;;;;;;;;;26.60;44.50;;;;;;5057823;28;19931;-61
2022/06/17 12:13:28;;;;;;;;;;;26.70;44.50;;;;;;5057335;28;19917;-61
2022/06/17 12:15:54;;;;;;;;;;;26.70;44.60;;;;;;5057607;28;19915;-61
2022/06/17 12:18:24;;;;;;;;;;;26.70;44.60;;;;;;5075214;28;19913;-60
2022/06/17 12:20:52;;;;;;;;;;;26.70;44.70;;;;;;5057373;28;19913;-61
2022/06/17 12:23:19;;;;;;;;;;;26.70;44.70;;;;;;5057232;28;19916;-61
2022/06/17 12:25:52;;;;;;;;;;;26.70;44.70;;;;;;5075498;28;19909;-61
2022/06/17 12:28:37;;;;;;;;;;;26.70;44.60;;;;;;5074872;28;19908;-61
2022/06/17 12:31:02;;;;;;;;;;;26.70;44.80;;;;;;5075101;28;20006;-61
2022/06/17 12:33:31;;;;;;;;;;;26.70;44.70;;;;;;5075019;28;19944;-61
2022/06/17 12:36:04;;;;;;;;;;;26.60;44.80;;;;;;5057101;28;19919;-61
2022/06/17 12:38:33;;;;;;;;;;;26.70;44.80;;;;;;5074943;28;20299;-61
2022/06/17 12:41:05;;;;;;;;;;;26.70;44.80;;;;;;5057275;28;19909;-60
2022/06/17 12:43:46;;;;;;;;;;;26.70;44.70;;;;;;5056831;28;19920;-60
2022/06/17 12:46:12;;;;;;;;;;;26.70;44.60;;;;;;5074771;28;19908;-60
2022/06/17 12:48:42;;;;;;;;;;;26.70;44.60;;;;;;5056866;28;20030;-61
2022/06/17 12:54:11;;;;;;;;;;;26.70;44.60;;;;;;5059440;28;19942;-61
2022/06/17 12:56:47;;;;;;;;;;;26.70;44.70;;;;;;5040015;28;19916;-61
2022/06/17 12:59:15;;;;;;;;;;;26.70;44.70;;;;;;5074787;28;19909;-61
2022/06/17 13:01:50;;;;;;;;;;;26.70;44.70;;;;;;5074569;28;20002;-61
2022/06/17 13:04:18;;;;;;;;;;;26.80;44.80;;;;;;5056724;28;19909;-61
2022/06/17 13:07:05;;;;;;;;;;;26.80;44.80;;;;;;5074592;28;19951;-61
2022/06/17 13:09:34;;;;;;;;;;;26.80;44.80;;;;;;5056433;28;19912;-60
2022/06/17 13:12:08;;;;;;;;;;;26.80;44.90;;;;;;5074315;28;19994;-61
2022/06/17 13:14:38;;;;;;;;;;;26.80;45.00;;;;;;5056514;28;19908;-60
2022/06/17 13:17:13;;;;;;;;;;;26.80;45.20;;;;;;5056254;28;19951;-62
2022/06/17 13:19:42;;;;;;;;;;;26.80;45.00;;;;;;5072901;28;19909;-61
2022/06/17 13:22:13;;;;;;;;;;;26.80;44.90;;;;;;5074137;28;19912;-61
2022/06/17 13:24:42;;;;;;;;;;;26.90;45.00;;;;;;5074153;28;19908;-60
2022/06/17 13:27:10;;;;;;;;;;;26.90;44.80;;;;;;5056118;28;19912;-61
2022/06/17 13:29:46;;;;;;;;;;;26.90;44.80;;;;;;5056320;28;20334;-61
2022/06/17 13:32:15;;;;;;;;;;;26.90;44.80;;;;;;5089521;28;20031;-61
2022/06/17 13:34:45;;;;;;;;;;;26.90;44.90;;;;;;5056061;28;19970;-61
2022/06/17 13:37:12;;;;;;;;;;;26.90;44.90;;;;;;5055848;28;19913;-61
2022/06/17 13:39:40;;;;;;;;;;;27.00;44.40;;;;;;5055237;28;19909;-61
2022/06/17 13:42:11;;;;;;;;;;;27.00;44.50;;;;;;5056172;28;19955;-61
2022/06/17 13:44:50;;;;;;;;;;;27.00;44.40;;;;;;5073594;28;19908;-61
2022/06/17 13:47:24;;;;;;;;;;;27.10;44.50;;;;;;5073484;28;19942;-61
2022/06/17 13:49:53;;;;;;;;;;;27.10;44.50;;;;;;5055787;28;19944;-61
2022/06/17 13:52:22;;;;;;;;;;;27.10;44.50;;;;;;5055644;28;19958;-61
2022/06/17 13:54:56;;;;;;;;;;;27.10;44.60;;;;;;5073609;28;19912;-61
2022/06/17 13:57:39;;;;;;;;;;;27.10;44.60;;;;;;5073506;28;20280;-61
2022/06/17 14:00:19;;;;;;;;;;;27.10;44.60;;;;;;5073490;28;19908;-61
2022/06/17 14:02:55;;;;;;;;;;;27.00;44.50;;;;;;5073390;28;19948;-61
2022/06/17 14:05:20;;;;;;;;;;;27.00;44.40;;;;;;5073321;28;19909;-60
2022/06/17 14:07:49;;;;;;;;;;;27.00;44.20;;;;;;5073386;28;19915;-61
2022/06/17 14:10:29;;;;;;;;;;;27.00;44.50;;;;;;5073191;28;19913;-61
2022/06/17 14:12:55;;;;;;;;;;;27.00;44.50;;;;;;5073216;28;20418;-61
2022/06/17 14:15:27;;;;;;;;;;;27.00;44.50;;;;;;5055373;28;19908;-61
2022/06/17 14:17:54;;;;;;;;;;;27.00;44.40;;;;;;5055359;28;19912;-61
2022/06/17 14:20:33;;;;;;;;;;;27.00;44.40;;;;;;5055228;28;19915;-61
2022/06/17 14:23:13;;;;;;;;;;;27.00;44.40;;;;;;5073366;28;19969;-60
2022/06/17 14:25:46;;;;;;;;;;;27.10;44.50;;;;;;5055378;28;19983;-61
2022/06/17 14:28:30;;;;;;;;;;;27.10;44.50;;;;;;5072979;28;19914;-60
2022/06/17 14:31:10;;;;;;;;;;;27.10;44.50;;;;;;5054902;28;19915;-61
2022/06/17 14:33:37;;;;;;;;;;;27.10;44.10;;;;;;5073140;28;19908;-61
2022/06/17 14:36:02;;;;;;;;;;;27.10;44.50;;;;;;5073092;28;20316;-60
2022/06/17 14:38:35;;;;;;;;;;;27.10;44.40;;;;;;5054826;28;19919;-61
2022/06/17 14:43:49;;;;;;;;;;;27.10;44.50;;;;;;5079737;28;19986;-61